Time;durP1;ratioP1;P1;durP2;ratioP2;P2;SDS_P1;SDS_P2;PMS_P1;PMS_P2;Temp;Humidity;BMP_temperature;BMP_pressure;BME280_temperature;BME280_humidity;BME280_pressure;Samples;Min_cycle;Max_cycle;Signal;HPM_P1;HPM_P2
2022/02/18 00:02:17;;;;;;;122.40;68.95;;;6.10;99.90;;;;;;5022201;28;20148;-80
2022/02/18 00:04:52;;;;;;;122.15;71.90;;;6.10;99.90;;;;;;5036284;28;20033;-82
2022/02/18 00:07:21;;;;;;;105.45;63.75;;;6.10;99.90;;;;;;5038333;28;20080;-79
2022/02/18 00:09:59;;;;;;;116.28;70.30;;;6.20;99.90;;;;;;5026703;28;20045;-80
2022/02/18 00:13:24;;;;;;;133.25;76.25;;;6.20;99.90;;;;;;5040702;28;20429;-81
2022/02/18 00:15:51;;;;;;;132.77;80.80;;;6.30;99.90;;;;;;5011983;28;20044;-80
2022/02/18 00:21:46;;;;;;;102.55;62.42;;;6.40;99.90;;;;;;5039190;28;20044;-80
2022/02/18 00:24:38;;;;;;;88.43;56.85;;;6.50;99.90;;;;;;5043700;28;20045;-80
2022/02/18 00:27:33;;;;;;;120.20;71.30;;;6.50;99.90;;;;;;5016344;28;20089;-80
2022/02/18 00:30:00;;;;;;;110.13;64.75;;;6.50;99.90;;;;;;5036804;28;20082;-80
2022/02/18 00:36:33;;;;;;;113.57;66.53;;;6.70;99.90;;;;;;5007006;28;20057;-80
2022/02/18 00:39:37;;;;;;;;;;;;;;;;;;;;;
2022/02/18 00:42:14;;;;;;;101.00;57.63;;;6.70;99.90;;;;;;5008453;28;20040;-79
2022/02/18 00:44:51;;;;;;;102.97;62.95;;;6.60;99.90;;;;;;5008152;28;20037;-80
2022/02/18 00:54:53;;;;;;;;;;;;;;;;;;;;;
2022/02/18 00:57:52;;;;;;;100.72;62.25;;;6.10;99.90;;;;;;4996141;28;20034;-80
2022/02/18 01:03:50;;;;;;;108.53;63.30;;;5.90;99.90;;;;;;4921773;28;20071;-81
2022/02/18 01:10:39;;;;;;;125.43;70.05;;;6.00;99.90;;;;;;4953014;28;20201;-81
2022/02/18 01:35:20;;;;;;;127.22;70.72;;;5.60;99.90;;;;;;4906817;29;20404;-80
2022/02/18 02:02:13;;;;;;;63.92;33.92;;;5.80;99.90;;;;;;4874119;29;20068;-80
2022/02/18 02:05:19;;;;;;;55.20;35.00;;;5.90;99.90;;;;;;4867608;29;20064;-80
2022/02/18 02:08:34;;;;;;;;;;;;;;;;;;;;;
2022/02/18 02:15:34;;;;;;;;;;;;;;;;;;;;;
2022/02/18 02:32:46;;;;;;;64.10;39.00;;;6.40;99.90;;;;;;4922273;29;20087;-80
2022/02/18 02:39:48;;;;;;;;;;;;;;;;;;;;;
2022/02/18 02:42:58;;;;;;;56.40;37.15;;;6.80;99.90;;;;;;4854527;29;20038;-80
2022/02/18 03:09:27;;;;;;;;;;;;;;;;;;;;;
2022/02/18 03:32:50;;;;;;;;;;;;;;;;;;;;;
2022/02/18 03:42:46;;;;;;;35.58;25.00;;;5.60;99.90;;;;;;4874025;29;20072;-80
2022/02/18 03:55:36;;;;;;;49.05;31.73;;;5.70;99.90;;;;;;4949151;28;20054;-80
2022/02/18 03:58:51;;;;;;;44.67;30.45;;;5.80;99.90;;;;;;4952385;28;20058;-80
2022/02/18 04:05:32;;;;;;;27.42;20.88;;;6.00;99.90;;;;;;4923971;29;20438;-80
2022/02/18 04:08:53;;;;;;;;;;;;;;;;;;;;;
2022/02/18 04:12:48;;;;;;;18.40;14.15;;;6.20;99.90;;;;;;4931854;29;20055;-81
2022/02/18 04:15:06;;;;;;;18.98;14.45;;;6.30;99.90;;;;;;4904648;29;20083;-81
2022/02/18 04:20:49;;;;;;;19.50;15.20;;;6.40;99.90;;;;;;4931362;29;20569;-81
2022/02/18 04:30:59;;;;;;;32.90;23.33;;;6.10;99.90;;;;;;4945182;29;20094;-80
2022/02/18 04:55:01;;;;;;;21.92;16.58;;;6.00;99.90;;;;;;4939524;29;20037;-79
2022/02/18 04:57:50;;;;;;;39.28;25.67;;;5.90;99.90;;;;;;4937569;29;20039;-79
2022/02/18 05:01:20;;;;;;;;;;;;;;;;;;;;;
2022/02/18 05:04:24;;;;;;;;;;;;;;;;;;;;;
2022/02/18 05:07:35;;;;;;;21.15;14.82;;;5.90;99.90;;;;;;4917423;29;20027;-80
2022/02/18 05:11:08;;;;;;;20.42;15.82;;;5.90;99.90;;;;;;4892328;29;20123;-79
2022/02/18 05:13:34;;;;;;;24.70;15.90;;;5.90;99.90;;;;;;4917279;29;20110;-80
2022/02/18 05:16:56;;;;;;;;;;;;;;;;;;;;;
2022/02/18 05:25:11;;;;;;;20.00;15.25;;;5.90;99.90;;;;;;4964349;28;20046;-79
2022/02/18 05:28:39;;;;;;;21.02;15.32;;;5.90;99.90;;;;;;5013897;28;20026;-79
2022/02/18 05:31:59;;;;;;;;;;;;;;;;;;;;;
2022/02/18 05:34:54;;;;;;;17.88;13.60;;;6.00;99.90;;;;;;5027510;28;20028;-79
2022/02/18 05:38:05;;;;;;;20.15;14.95;;;6.00;99.90;;;;;;5023803;28;20060;-80
2022/02/18 05:41:21;;;;;;;24.70;19.67;;;5.90;99.90;;;;;;5042630;28;20029;-80
2022/02/18 05:44:21;;;;;;;29.25;22.27;;;5.80;99.90;;;;;;5030390;28;20045;-79
2022/02/18 05:50:21;;;;;;;30.00;23.30;;;5.80;99.90;;;;;;5026080;28;20033;-80
2022/02/18 05:52:48;;;;;;;33.42;23.83;;;5.80;99.90;;;;;;5043027;28;20034;-80
2022/02/18 05:55:14;;;;;;;32.75;23.83;;;5.90;99.90;;;;;;5047308;28;20500;-79
2022/02/18 05:57:55;;;;;;;54.33;30.35;;;5.90;99.90;;;;;;5041346;28;20064;-80
2022/02/18 06:01:10;;;;;;;52.85;30.85;;;5.90;99.90;;;;;;5048470;28;20039;-80
2022/02/18 06:04:08;;;;;;;37.70;21.90;;;6.00;99.90;;;;;;5049590;28;20029;-80
2022/02/18 06:09:45;;;;;;;24.23;16.00;;;6.30;99.90;;;;;;5011892;28;20085;-80
2022/02/18 06:12:14;;;;;;;;;;;6.40;99.90;;;;;;5047268;28;20032;-80
2022/02/18 06:14:50;;;;;;;;;;;;;;;;;;;;;
2022/02/18 06:17:17;;;;;;;30.02;21.10;;;6.50;99.90;;;;;;5042546;28;20035;-80
2022/02/18 06:19:43;;;;;;;29.17;20.52;;;6.40;99.90;;;;;;5039609;28;20431;-80
2022/02/18 06:22:21;;;;;;;32.28;20.02;;;6.30;99.90;;;;;;5039302;28;20116;-80
2022/02/18 06:24:47;;;;;;;28.60;19.95;;;6.20;99.90;;;;;;5047691;28;20025;-80
2022/02/18 06:27:22;;;;;;;22.13;17.90;;;6.20;99.90;;;;;;5040271;28;20452;-80
2022/02/18 06:33:06;;;;;;;23.92;18.08;;;6.10;99.90;;;;;;5042946;28;20116;-79
2022/02/18 06:35:42;;;;;;;20.80;18.52;;;6.10;99.90;;;;;;5046763;28;20029;-79
2022/02/18 06:38:21;;;;;;;87.82;39.90;;;6.10;99.90;;;;;;5047940;28;20037;-80
2022/02/18 06:40:47;;;;;;;95.78;39.88;;;6.10;99.90;;;;;;5042480;28;20378;-80
2022/02/18 06:43:16;;;;;;;46.05;26.33;;;6.20;99.90;;;;;;5043092;28;20108;-80
2022/02/18 06:45:42;;;;;;;38.72;23.85;;;6.20;99.90;;;;;;5040322;28;20025;-80
2022/02/18 06:48:30;;;;;;;36.33;24.23;;;6.20;99.90;;;;;;5045904;28;20033;-80
2022/02/18 06:51:05;;;;;;;30.38;21.45;;;6.30;99.90;;;;;;5042060;28;20392;-80
2022/02/18 06:53:41;;;;;;;;;;;;;;;;;;;;;
2022/02/18 06:56:27;;;;;;;26.15;19.75;;;6.40;99.90;;;;;;5044930;28;20502;-80
2022/02/18 06:59:02;;;;;;;25.15;17.55;;;6.40;99.90;;;;;;5042180;28;20029;-80
2022/02/18 07:01:30;;;;;;;26.13;19.17;;;6.50;99.90;;;;;;5044107;28;20025;-80
2022/02/18 07:04:02;;;;;;;26.95;16.75;;;6.60;99.90;;;;;;5043086;28;20025;-78
2022/02/18 07:06:53;;;;;;;18.63;14.02;;;6.70;99.90;;;;;;5043669;28;20147;-81
2022/02/18 07:09:56;;;;;;;;;;;;;;;;;;;;;
2022/02/18 07:12:27;;;;;;;;;;;6.90;99.90;;;;;;5043343;28;20041;-82
2022/02/18 07:15:24;;;;;;;16.08;11.30;;;7.00;99.90;;;;;;5039660;28;19905;-81
2022/02/18 07:18:03;;;;;;;18.35;11.40;;;7.10;99.90;;;;;;5039384;28;20037;-80
2022/02/18 07:20:55;;;;;;;15.85;12.20;;;7.30;99.90;;;;;;5045652;28;20021;-82
2022/02/18 07:23:36;;;;;;;14.57;9.93;;;7.40;99.90;;;;;;5041540;28;20040;-81
2022/02/18 07:26:01;;;;;;;12.60;9.75;;;7.50;99.90;;;;;;5041853;28;20025;-79
2022/02/18 07:28:30;;;;;;;16.25;10.05;;;7.60;99.90;;;;;;5040286;28;20025;-79
2022/02/18 07:31:51;;;;;;;10.40;8.18;;;7.80;99.90;;;;;;5040070;28;20435;-81
2022/02/18 07:34:16;;;;;;;22.67;9.68;;;8.00;99.90;;;;;;5020841;28;20040;-79
2022/02/18 07:36:45;;;;;;;12.25;8.07;;;8.10;99.90;;;;;;5039800;28;20072;-79
2022/02/18 07:39:19;;;;;;;14.60;8.30;;;8.20;99.90;;;;;;5039198;28;20492;-80
2022/02/18 07:45:15;;;;;;;10.30;8.60;;;8.50;99.90;;;;;;4995325;28;20038;-79
2022/02/18 07:47:43;;;;;;;9.88;8.45;;;8.70;99.90;;;;;;5040213;28;20083;-82
2022/02/18 07:50:12;;;;;;;15.13;8.70;;;8.80;99.90;;;;;;5020409;28;20052;-82
2022/02/18 07:53:30;;;;;;;;;;;;;;;;;;;;;
2022/02/18 07:55:56;;;;;;;13.82;10.88;;;9.00;99.90;;;;;;5042689;28;20018;-83
2022/02/18 07:58:27;;;;;;;17.48;13.65;;;9.10;99.90;;;;;;5040315;28;20112;-83
2022/02/18 08:00:53;;;;;;;17.00;10.13;;;9.10;99.90;;;;;;5040989;28;20036;-82
2022/02/18 08:03:22;;;;;;;17.73;11.65;;;9.20;99.90;;;;;;5040837;28;20021;-82
2022/02/18 08:05:49;;;;;;;11.43;8.20;;;9.20;99.90;;;;;;5023754;28;20070;-83
2022/02/18 08:08:51;;;;;;;9.25;6.55;;;9.30;99.90;;;;;;5042167;28;20188;-82
2022/02/18 08:11:23;;;;;;;15.65;12.07;;;9.40;99.90;;;;;;5040376;28;20049;-83
2022/02/18 08:13:53;;;;;;;9.63;7.05;;;9.50;99.90;;;;;;5024360;28;20051;-82
2022/02/18 08:16:30;;;;;;;13.18;8.75;;;9.60;99.90;;;;;;5020202;28;20056;-82
2022/02/18 08:19:23;;;;;;;12.45;7.05;;;9.70;99.90;;;;;;5022297;28;20080;-82
2022/02/18 08:22:04;;;;;;;10.57;7.70;;;9.80;99.90;;;;;;5040155;28;20037;-83
2022/02/18 08:24:45;;;;;;;10.93;7.15;;;9.90;99.90;;;;;;5037963;28;20543;-83
2022/02/18 08:27:13;;;;;;;11.98;7.40;;;10.00;99.90;;;;;;5049022;28;20040;-83
2022/02/18 08:29:45;;;;;;;16.95;11.32;;;10.10;99.90;;;;;;5018299;28;20075;-83
2022/02/18 08:32:14;;;;;;;28.02;14.40;;;10.20;99.90;;;;;;5037645;28;20045;-82
2022/02/18 08:34:45;;;;;;;29.20;16.48;;;10.30;99.90;;;;;;5043762;28;20249;-82
2022/02/18 08:37:17;;;;;;;19.00;11.67;;;10.40;99.90;;;;;;5039351;28;20130;-83
2022/02/18 08:39:51;;;;;;;14.55;9.35;;;10.40;99.90;;;;;;5019969;28;20798;-82
2022/02/18 08:42:23;;;;;;;17.50;11.70;;;10.60;99.90;;;;;;5040917;28;20029;-83
2022/02/18 08:45:15;;;;;;;19.80;12.05;;;10.70;99.90;;;;;;5045306;28;20076;-82
2022/02/18 08:47:46;;;;;;;23.40;15.70;;;10.70;99.90;;;;;;5039791;28;20048;-82
2022/02/18 08:50:12;;;;;;;16.80;10.40;;;10.90;99.90;;;;;;5045038;28;20507;-81
2022/02/18 08:52:59;;;;;;;12.88;9.18;;;10.80;99.90;;;;;;5040471;28;20087;-82
2022/02/18 08:55:27;;;;;;;14.90;10.32;;;10.70;99.90;;;;;;5045410;28;20104;-82
2022/02/18 08:57:57;;;;;;;14.75;11.30;;;10.50;99.90;;;;;;5035979;28;20033;-82
2022/02/18 09:00:43;;;;;;;13.20;9.95;;;10.50;99.90;;;;;;5043690;28;20048;-82
2022/02/18 09:03:30;;;;;;;13.25;8.43;;;10.40;99.90;;;;;;5041431;28;20108;-81
2022/02/18 09:06:40;;;;;;;14.93;8.48;;;10.50;99.90;;;;;;5040327;28;20036;-82
2022/02/18 09:09:12;;;;;;;12.80;9.77;;;10.50;99.90;;;;;;5023640;28;20112;-82
2022/02/18 09:11:38;;;;;;;18.20;11.75;;;10.30;99.90;;;;;;5040731;28;20041;-82
2022/02/18 09:14:12;;;;;;;24.17;15.50;;;10.30;99.90;;;;;;5024109;28;20033;-82
2022/02/18 09:16:40;;;;;;;20.55;16.58;;;10.20;99.90;;;;;;5042613;28;20103;-81
2022/02/18 09:25:49;;;;;;;21.80;15.60;;;10.40;99.90;;;;;;5002657;28;20507;-82
2022/02/18 09:28:44;;;;;;;28.08;17.08;;;10.50;99.90;;;;;;5007655;28;20083;-82
2022/02/18 09:31:36;;;;;;;22.48;17.25;;;10.60;99.90;;;;;;5003872;28;20237;-82
2022/02/18 09:34:08;;;;;;;29.27;16.50;;;10.60;99.90;;;;;;5038850;28;20029;-81
2022/02/18 09:36:47;;;;;;;21.40;17.77;;;10.60;99.90;;;;;;5040333;28;20053;-82
2022/02/18 09:40:00;;;;;;;26.27;16.52;;;10.70;99.90;;;;;;5039241;28;20034;-81
2022/02/18 09:49:57;;;;;;;15.15;12.65;;;11.00;99.90;;;;;;4968519;28;20030;-82
2022/02/18 09:52:32;;;;;;;24.80;14.13;;;11.10;99.90;;;;;;4958644;28;20058;-82
2022/02/18 09:55:10;;;;;;;19.55;13.98;;;11.10;99.90;;;;;;4957210;28;20034;-82
2022/02/18 09:57:54;;;;;;;27.50;15.00;;;11.20;99.90;;;;;;5033628;28;20041;-82
2022/02/18 10:00:24;;;;;;;16.17;11.68;;;11.30;99.90;;;;;;5044508;28;20025;-82
2022/02/18 10:02:50;;;;;;;18.90;13.35;;;11.50;99.90;;;;;;5036521;28;20035;-82
2022/02/18 10:05:34;;;;;;;20.80;12.60;;;11.60;99.90;;;;;;5040061;28;20026;-82
2022/02/18 10:08:06;;;;;;;28.67;19.35;;;11.80;99.90;;;;;;5039752;28;20044;-82
2022/02/18 10:10:38;;;;;;;26.98;17.38;;;12.10;99.90;;;;;;5035572;28;20507;-82
2022/02/18 10:13:30;;;;;;;23.08;14.68;;;12.20;99.90;;;;;;5039941;28;20029;-82
2022/02/18 10:16:03;;;;;;;12.55;9.40;;;12.40;99.90;;;;;;5035176;28;20022;-83
2022/02/18 10:18:51;;;;;;;18.15;12.90;;;12.70;99.90;;;;;;5041481;28;20036;-82
2022/02/18 10:21:27;;;;;;;22.33;17.05;;;12.90;99.90;;;;;;5044100;28;20052;-81
2022/02/18 10:24:47;;;;;;;15.50;10.43;;;12.80;99.90;;;;;;5044366;28;20488;-82
2022/02/18 10:27:15;;;;;;;85.25;52.00;;;12.70;99.90;;;;;;5042222;28;20025;-82
2022/02/18 10:29:55;;;;;;;22.98;13.32;;;12.60;99.90;;;;;;5038588;28;20060;-82
2022/02/18 10:32:21;;;;;;;26.70;16.58;;;12.80;99.90;;;;;;5040115;28;20040;-82
2022/02/18 10:34:52;;;;;;;26.30;15.63;;;12.70;99.90;;;;;;5028418;28;20392;-82
2022/02/18 10:37:50;;;;;;;27.45;14.95;;;12.60;99.90;;;;;;5031391;28;20140;-82
2022/02/18 10:40:20;;;;;;;22.00;16.33;;;12.60;99.90;;;;;;5001300;28;20037;-82
2022/02/18 10:42:48;;;;;;;14.38;11.13;;;12.70;99.90;;;;;;5022167;28;20069;-82
2022/02/18 10:45:19;;;;;;;16.77;11.27;;;12.70;99.90;;;;;;5028203;28;20084;-83
2022/02/18 10:47:47;;;;;;;15.05;9.70;;;12.80;99.90;;;;;;5021497;28;20053;-82
2022/02/18 10:50:38;;;;;;;15.63;9.93;;;13.10;99.90;;;;;;5026592;28;20025;-82
2022/02/18 10:53:15;;;;;;;14.90;10.00;;;13.30;99.90;;;;;;5035953;28;20114;-83
2022/02/18 10:55:57;;;;;;;13.98;9.10;;;13.50;99.90;;;;;;5025755;28;20480;-82
2022/02/18 10:58:45;;;;;;;22.67;12.80;;;13.70;99.90;;;;;;5021361;28;20473;-81
2022/02/18 11:01:29;;;;;;;19.13;12.38;;;13.70;99.90;;;;;;5024757;28;20041;-82
2022/02/18 11:04:29;;;;;;;22.90;10.35;;;13.90;99.90;;;;;;5013947;28;20076;-82
2022/02/18 11:07:24;;;;;;;14.27;8.55;;;14.20;99.90;;;;;;5024521;28;20026;-82
2022/02/18 11:10:13;;;;;;;13.18;7.22;;;14.80;99.90;;;;;;5026018;28;20038;-82
2022/02/18 11:13:21;;;;;;;14.68;11.23;;;14.80;99.90;;;;;;5021520;28;20037;-83
2022/02/18 11:16:24;;;;;;;31.73;15.55;;;14.70;99.90;;;;;;5003324;28;20026;-82
2022/02/18 11:18:58;;;;;;;25.08;13.52;;;14.60;99.90;;;;;;5020120;28;20048;-82
2022/02/18 11:21:30;;;;;;;29.38;18.45;;;14.60;99.90;;;;;;5018324;28;20041;-82
2022/02/18 11:24:06;;;;;;;27.83;15.15;;;14.30;99.90;;;;;;5022834;28;20536;-82
2022/02/18 11:26:45;;;;;;;25.90;14.68;;;13.90;99.90;;;;;;5023493;28;20546;-82
2022/02/18 11:29:24;;;;;;;25.75;11.13;;;13.50;99.90;;;;;;5024702;28;20436;-81
2022/02/18 11:31:58;;;;;;;17.27;8.30;;;13.60;99.90;;;;;;5027171;28;20060;-82
2022/02/18 11:34:55;;;;;;;;;;;;;;;;;;;;;
2022/02/18 11:37:42;;;;;;;21.92;9.00;;;14.00;99.90;;;;;;5018410;28;20046;-82
2022/02/18 11:40:57;;;;;;;;;;;;;;;;;;;;;
2022/02/18 11:44:14;;;;;;;17.20;9.68;;;14.60;99.90;;;;;;5019845;28;20048;-82
2022/02/18 11:47:37;;;;;;;20.23;10.13;;;14.30;99.90;;;;;;5018462;28;20053;-82
2022/02/18 11:50:34;;;;;;;16.30;9.02;;;14.10;99.90;;;;;;5017969;28;20026;-82
2022/02/18 11:53:15;;;;;;;17.00;9.20;;;13.90;99.90;;;;;;5024205;28;20543;-81
2022/02/18 11:55:46;;;;;;;30.15;15.35;;;13.80;99.90;;;;;;5016428;28;20030;-82
2022/02/18 11:58:17;;;;;;;21.42;10.98;;;13.60;99.90;;;;;;5021884;28;20036;-82
2022/02/18 12:00:50;;;;;;;15.40;10.70;;;13.40;99.90;;;;;;5021983;28;20021;-82
2022/02/18 12:03:33;;;;;;;16.88;11.02;;;13.30;99.90;;;;;;5005233;28;20083;-82
2022/02/18 12:06:31;;;;;;;18.20;9.48;;;13.30;99.90;;;;;;5023574;28;20044;-82
2022/02/18 12:09:02;;;;;;;17.38;7.88;;;13.20;99.90;;;;;;5024137;28;20116;-82
2022/02/18 12:12:11;;;;;;;13.38;8.38;;;13.30;99.90;;;;;;5022103;28;20029;-82
2022/02/18 12:20:46;;;;;;;13.10;7.65;;;13.40;99.90;;;;;;4927430;29;20127;-82
2022/02/18 12:23:27;;;;;;;17.10;7.72;;;13.40;99.90;;;;;;4936193;29;20036;-82
2022/02/18 12:26:40;;;;;;;13.90;8.63;;;13.30;99.90;;;;;;4990203;28;20029;-82
2022/02/18 12:29:42;;;;;;;14.10;9.55;;;13.20;99.90;;;;;;5016768;28;20129;-82
2022/02/18 12:32:16;;;;;;;16.13;8.73;;;13.20;99.90;;;;;;5022995;28;20042;-81
2022/02/18 12:34:44;;;;;;;15.50;9.32;;;13.10;99.90;;;;;;5014592;28;20026;-82
2022/02/18 12:37:20;;;;;;;18.80;8.82;;;13.20;99.90;;;;;;5036673;28;20144;-82
2022/02/18 12:39:54;;;;;;;16.00;7.93;;;13.20;99.90;;;;;;5035847;28;20037;-82
2022/02/18 12:42:25;;;;;;;16.10;8.55;;;13.30;99.90;;;;;;5041248;28;20032;-82
2022/02/18 12:44:59;;;;;;;14.85;10.13;;;13.30;99.90;;;;;;5048425;28;20426;-82
2022/02/18 12:47:51;;;;;;;17.85;8.18;;;13.30;99.90;;;;;;5036246;28;20029;-81
2022/02/18 12:50:17;;;;;;;13.88;8.55;;;13.30;99.90;;;;;;5048523;28;20499;-82
2022/02/18 12:52:54;;;;;;;14.13;9.10;;;13.50;99.90;;;;;;5042253;28;20653;-82
2022/02/18 12:55:24;;;;;;;17.88;9.77;;;13.60;99.90;;;;;;5047386;28;20021;-82
2022/02/18 12:57:53;;;;;;;16.85;8.55;;;13.50;99.90;;;;;;5046619;28;20047;-82
2022/02/18 13:00:22;;;;;;;17.55;8.93;;;13.50;99.90;;;;;;5047585;28;20033;-82
2022/02/18 13:03:01;;;;;;;15.52;8.93;;;13.40;99.90;;;;;;5049251;28;20502;-82
2022/02/18 13:05:32;;;;;;;18.33;8.15;;;13.30;99.90;;;;;;5047513;28;20055;-81
2022/02/18 13:08:03;;;;;;;11.77;6.97;;;13.20;99.90;;;;;;5045634;28;20017;-81
2022/02/18 13:10:35;;;;;;;24.08;9.18;;;13.00;99.90;;;;;;5047196;28;20079;-82
2022/02/18 13:13:12;;;;;;;15.60;8.25;;;12.90;99.90;;;;;;5048668;28;20388;-82
2022/02/18 13:15:39;;;;;;;14.77;7.78;;;12.80;99.90;;;;;;5040378;28;20033;-81
2022/02/18 13:18:06;;;;;;;19.20;9.15;;;12.60;99.90;;;;;;5036905;28;20036;-82
2022/02/18 13:20:41;;;;;;;24.17;8.85;;;12.40;99.90;;;;;;5039320;28;20029;-81
2022/02/18 13:23:17;;;;;;;13.40;6.35;;;12.20;99.90;;;;;;5040457;28;20022;-82
2022/02/18 13:26:02;;;;;;;17.35;6.32;;;12.00;99.90;;;;;;5038071;28;20134;-82
2022/02/18 13:28:45;;;;;;;13.38;6.63;;;12.00;99.90;;;;;;5037259;28;20021;-82
2022/02/18 13:31:20;;;;;;;11.10;6.57;;;11.90;99.90;;;;;;5040767;28;20128;-82
2022/02/18 13:33:52;;;;;;;14.45;8.00;;;11.90;99.90;;;;;;5041349;28;20028;-82
2022/02/18 13:39:20;;;;;;;7.22;5.32;;;12.10;99.90;;;;;;5042042;28;21069;-82
2022/02/18 13:42:00;;;;;;;11.65;5.00;;;12.10;99.90;;;;;;5040203;28;20067;-82
2022/02/18 13:44:29;;;;;;;16.27;5.85;;;12.10;99.90;;;;;;5036156;28;20025;-81
2022/02/18 13:47:07;;;;;;;13.02;5.97;;;12.10;99.90;;;;;;5038780;28;20071;-83
2022/02/18 13:49:33;;;;;;;12.32;5.72;;;12.10;99.90;;;;;;5035362;28;20106;-83
2022/02/18 13:52:06;;;;;;;11.20;6.55;;;12.10;99.90;;;;;;5042365;28;20034;-82
2022/02/18 13:54:49;;;;;;;14.43;6.93;;;12.20;99.90;;;;;;5044037;28;20056;-82
2022/02/18 13:57:36;;;;;;;15.30;7.47;;;12.40;99.90;;;;;;5040725;28;20041;-82
2022/02/18 14:00:10;;;;;;;15.68;6.93;;;12.60;99.90;;;;;;5037177;28;20034;-82
2022/02/18 14:02:49;;;;;;;10.90;6.13;;;12.70;99.90;;;;;;5043168;28;20104;-81
2022/02/18 14:05:27;;;;;;;13.25;7.60;;;12.80;99.90;;;;;;5048432;28;20387;-82
2022/02/18 14:08:04;;;;;;;15.10;7.53;;;12.80;99.90;;;;;;5045320;28;20021;-82
2022/02/18 14:10:42;;;;;;;17.15;6.03;;;12.90;99.90;;;;;;5041375;28;20102;-83
2022/02/18 14:13:33;;;;;;;12.13;6.05;;;13.00;99.90;;;;;;5042381;28;20029;-83
2022/02/18 14:16:28;;;;;;;13.10;7.78;;;13.10;99.90;;;;;;5023526;28;20310;-82
2022/02/18 14:18:59;;;;;;;12.13;7.40;;;13.10;99.90;;;;;;5044132;28;20098;-83
2022/02/18 14:21:28;;;;;;;37.03;22.02;;;13.00;99.90;;;;;;5044796;28;20029;-82
2022/02/18 14:23:57;;;;;;;17.52;11.30;;;12.90;99.90;;;;;;5044450;28;20029;-82
2022/02/18 14:26:26;;;;;;;19.05;11.23;;;12.90;99.90;;;;;;5046696;28;20103;-82
2022/02/18 14:28:57;;;;;;;15.40;9.60;;;12.80;99.90;;;;;;5043585;28;20025;-83
2022/02/18 14:31:27;;;;;;;35.28;22.45;;;12.80;99.90;;;;;;5046389;28;20480;-82
2022/02/18 14:34:13;;;;;;;16.17;8.57;;;12.80;99.90;;;;;;5043051;28;20025;-82
2022/02/18 14:36:44;;;;;;;16.08;8.38;;;12.80;99.90;;;;;;5046225;28;20106;-82
2022/02/18 14:39:20;;;;;;;15.95;8.75;;;12.80;99.90;;;;;;5034219;28;20392;-83
2022/02/18 14:42:09;;;;;;;14.05;8.20;;;12.80;99.90;;;;;;5025548;28;20665;-82
2022/02/18 14:45:05;;;;;;;18.50;8.23;;;13.00;99.90;;;;;;5043995;28;20471;-83
2022/02/18 14:47:36;;;;;;;24.13;9.02;;;12.90;99.90;;;;;;5037964;28;20025;-81
2022/02/18 14:50:03;;;;;;;12.13;8.45;;;12.80;99.90;;;;;;5037494;28;20061;-82
2022/02/18 14:52:32;;;;;;;13.98;7.88;;;12.70;99.90;;;;;;5042575;28;20164;-82
2022/02/18 14:54:58;;;;;;;14.35;8.82;;;12.60;99.90;;;;;;5037991;28;20055;-82
2022/02/18 14:57:39;;;;;;;13.38;7.88;;;12.60;99.90;;;;;;5038841;28;20090;-82
2022/02/18 15:00:08;;;;;;;18.55;7.40;;;12.60;99.90;;;;;;5038432;28;20476;-82
2022/02/18 15:02:37;;;;;;;16.58;5.93;;;12.70;99.90;;;;;;5041943;28;20112;-83
2022/02/18 15:05:09;;;;;;;13.60;7.30;;;12.90;99.90;;;;;;5046391;28;20167;-83
2022/02/18 15:07:38;;;;;;;11.95;7.13;;;12.90;99.90;;;;;;5041104;28;20033;-82
2022/02/18 15:10:07;;;;;;;11.18;6.47;;;12.90;99.90;;;;;;5046649;28;20120;-82
2022/02/18 15:12:33;;;;;;;17.35;7.20;;;13.00;99.90;;;;;;5040243;28;20074;-83
2022/02/18 15:15:04;;;;;;;22.17;9.98;;;13.10;99.90;;;;;;5048135;28;20029;-79
2022/02/18 15:17:31;;;;;;;16.45;10.90;;;12.90;99.90;;;;;;5039202;28;20029;-83
2022/02/18 15:19:57;;;;;;;16.50;10.07;;;12.80;99.90;;;;;;5046701;28;20546;-83
2022/02/18 15:22:23;;;;;;;18.88;10.30;;;12.70;99.90;;;;;;5042656;28;20025;-81
2022/02/18 15:24:48;;;;;;;20.95;11.27;;;12.60;99.90;;;;;;5044733;28;20056;-83
2022/02/18 15:27:17;;;;;;;22.40;10.15;;;12.50;99.90;;;;;;5045650;28;20057;-83
2022/02/18 15:35:14;;;;;;;23.75;9.23;;;12.30;99.90;;;;;;5039695;28;20035;-82
2022/02/18 15:37:40;;;;;;;13.48;6.30;;;12.20;99.90;;;;;;5041076;28;20049;-81
2022/02/18 15:43:12;;;;;;;18.33;8.75;;;12.30;99.90;;;;;;5041586;28;20099;-81
2022/02/18 15:45:41;;;;;;;21.17;12.80;;;12.20;99.90;;;;;;5040849;28;20372;-81
2022/02/18 15:48:08;;;;;;;32.40;10.60;;;12.20;99.90;;;;;;5041808;28;20151;-81
2022/02/18 15:50:35;;;;;;;26.45;8.52;;;12.10;99.90;;;;;;5041231;28;20106;-81
2022/02/18 15:53:01;;;;;;;21.63;8.00;;;12.10;99.90;;;;;;5042585;28;20026;-81
2022/02/18 15:55:27;;;;;;;18.45;7.50;;;12.10;99.90;;;;;;5040282;28;20025;-80
2022/02/18 15:57:56;;;;;;;10.40;4.78;;;12.00;99.90;;;;;;5043097;28;20399;-81
2022/02/18 16:00:26;;;;;;;12.35;4.35;;;11.90;99.90;;;;;;5039458;28;20029;-81
2022/02/18 16:02:52;;;;;;;26.10;17.10;;;11.70;99.90;;;;;;5042486;28;20025;-81
2022/02/18 16:05:21;;;;;;;16.83;6.13;;;11.70;99.90;;;;;;5038728;28;20037;-80
2022/02/18 16:07:46;;;;;;;20.10;8.85;;;11.60;99.90;;;;;;5043571;28;20112;-80
2022/02/18 16:10:13;;;;;;;15.65;7.82;;;11.50;99.90;;;;;;5036871;28;20065;-81
2022/02/18 16:12:41;;;;;;;18.58;12.82;;;11.40;99.90;;;;;;5034201;28;20048;-81
2022/02/18 16:15:08;;;;;;;21.88;8.55;;;11.40;99.90;;;;;;5045542;28;20104;-80
2022/02/18 16:17:43;;;;;;;11.23;5.10;;;11.40;99.90;;;;;;5039621;28;20034;-80
2022/02/18 16:20:14;;;;;;;14.73;5.72;;;11.40;99.90;;;;;;5044992;28;20037;-81
2022/02/18 16:22:40;;;;;;;12.73;6.75;;;11.40;99.90;;;;;;5040279;28;20436;-81
2022/02/18 16:25:15;;;;;;;8.32;5.30;;;11.30;99.90;;;;;;5044998;28;20468;-80
2022/02/18 16:27:41;;;;;;;13.05;6.30;;;11.30;99.90;;;;;;5038954;28;20120;-82
2022/02/18 16:30:08;;;;;;;12.93;7.28;;;11.30;99.90;;;;;;5045400;28;20056;-81
2022/02/18 16:32:37;;;;;;;16.10;8.38;;;11.40;99.90;;;;;;5040128;28;20037;-81
2022/02/18 16:35:03;;;;;;;12.98;7.70;;;11.30;99.90;;;;;;5045345;28;20032;-80
2022/02/18 16:37:31;;;;;;;11.73;6.50;;;11.20;99.90;;;;;;5040126;28;20045;-80
2022/02/18 16:39:58;;;;;;;16.88;8.40;;;11.20;99.90;;;;;;5043507;28;20041;-81
2022/02/18 16:42:26;;;;;;;18.27;8.75;;;11.10;99.90;;;;;;5041353;28;20028;-81
2022/02/18 16:44:54;;;;;;;11.48;7.03;;;11.10;99.90;;;;;;5044597;28;20025;-80
2022/02/18 16:47:22;;;;;;;16.50;8.98;;;11.10;99.90;;;;;;5041607;28;20036;-81
2022/02/18 16:49:48;;;;;;;18.95;10.65;;;11.10;99.90;;;;;;5034228;28;20071;-80
2022/02/18 16:52:17;;;;;;;15.77;9.48;;;11.10;99.90;;;;;;5044069;28;20037;-80
2022/02/18 16:54:46;;;;;;;17.05;10.52;;;11.10;99.90;;;;;;5035732;28;20499;-80
2022/02/18 16:57:12;;;;;;;19.60;10.38;;;11.10;99.90;;;;;;5037271;28;20037;-81
2022/02/18 16:59:38;;;;;;;39.85;26.27;;;11.10;99.90;;;;;;5044449;28;20028;-81
2022/02/18 17:02:08;;;;;;;18.50;9.00;;;11.10;99.90;;;;;;5038278;28;20065;-80
2022/02/18 17:04:33;;;;;;;15.93;8.77;;;11.00;99.90;;;;;;5044805;28;20565;-80
2022/02/18 17:07:01;;;;;;;14.07;9.02;;;11.00;99.90;;;;;;5039063;28;20064;-81
2022/02/18 17:09:31;;;;;;;21.52;12.32;;;11.00;99.90;;;;;;5037756;28;20025;-81
2022/02/18 17:12:08;;;;;;;11.68;8.45;;;11.10;99.90;;;;;;5042535;28;20045;-81
2022/02/18 17:14:36;;;;;;;15.45;8.93;;;11.10;99.90;;;;;;5043452;28;20021;-81
2022/02/18 17:17:03;;;;;;;20.85;18.05;;;11.10;99.90;;;;;;5043231;28;20400;-81
2022/02/18 17:19:33;;;;;;;22.08;14.63;;;11.10;99.90;;;;;;5037653;28;20021;-81
2022/02/18 17:22:02;;;;;;;13.90;7.50;;;11.10;99.90;;;;;;5042446;28;20033;-81
2022/02/18 17:24:29;;;;;;;12.15;8.18;;;11.10;99.90;;;;;;5043848;28;20104;-81
2022/02/18 17:26:56;;;;;;;15.27;8.68;;;11.20;99.90;;;;;;5039028;28;20038;-80
2022/02/18 17:29:22;;;;;;;17.00;9.13;;;11.20;99.90;;;;;;5045996;28;20567;-81
2022/02/18 17:31:50;;;;;;;13.82;10.02;;;11.20;99.90;;;;;;5045324;28;20049;-81
2022/02/18 17:34:17;;;;;;;14.35;8.95;;;11.20;99.90;;;;;;5046703;28;20037;-81
2022/02/18 17:36:51;;;;;;;16.80;9.38;;;11.30;99.90;;;;;;5041378;28;20045;-80
2022/02/18 17:39:21;;;;;;;15.65;9.93;;;11.30;99.90;;;;;;5041483;28;20593;-81
2022/02/18 17:41:46;;;;;;;11.93;9.57;;;11.40;99.90;;;;;;5044378;28;20035;-81
2022/02/18 17:44:13;;;;;;;15.13;10.10;;;11.40;99.90;;;;;;5044952;28;20033;-81
2022/02/18 17:46:39;;;;;;;20.00;12.98;;;11.40;99.90;;;;;;5044031;28;20116;-80
2022/02/18 17:49:12;;;;;;;14.63;10.05;;;11.30;99.90;;;;;;5044339;28;20072;-81
2022/02/18 17:51:42;;;;;;;12.80;9.63;;;11.30;99.90;;;;;;5042722;28;20047;-81
2022/02/18 17:54:11;;;;;;;10.20;8.35;;;11.30;99.90;;;;;;5041744;28;20529;-81
2022/02/18 17:56:41;;;;;;;16.17;9.55;;;11.30;99.90;;;;;;5046509;28;20029;-81